Dades meteomassalio
Diari Summary for Setembre 29, 2017 Units:  Metric    English   Both
« Previous Day
Next Day »
Diari Semanal Mensual Anual Personalitzat
  Maxima: Minima: Mijana:
Temperatura: 28.3 °C 8.3 °C 16.4 °C
Rosada: 16.4 °C 6.8 °C 10.6 °C
Humitat: 92 % 36 % 72 %
Velocitat del vent: 16.7 km/h 0.0 km/h 1.6 km/h
Racha vent: 16.7 km/h - -
Vent:- - South
Pressio: 1025.3 hPa 1020.9 hPa -
Pluja: 0.0 mm    
Historical Graphs
 
 
Tabular Data for Setembre 29, 2017
Time Temperature Dew Point Pressure Wind Wind Speed Wind Gust Humidity Rainfall Rate (Hourly) solar Conditions
00:02 12.8 °C 9.4 °C 1024.9 hPa Calm     80 % 0.0 mm 0.0 W/m2 CLR
00:07 12.8 °C 9.4 °C 1024.9 hPa Calm     80 % 0.0 mm 0.0 W/m2 CLR
00:08 12.8 °C 9.4 °C 1024.9 hPa Calm     80 % 0.0 mm 0.0 W/m2 CLR
00:13 12.8 °C 9.6 °C 1024.9 hPa Calm     81 % 0.0 mm 0.0 W/m2 CLR
00:18 12.8 °C 9.8 °C 1025.3 hPa Calm     82 % 0.0 mm 0.0 W/m2 CLR
00:23 12.8 °C 9.6 °C 1025.3 hPa Calm     81 % 0.0 mm 0.0 W/m2 CLR
00:28 12.8 °C 9.8 °C 1025.3 hPa Calm     82 % 0.0 mm 0.0 W/m2 CLR
00:33 12.8 °C 9.8 °C 1025.3 hPa Calm     82 % 0.0 mm 0.0 W/m2 CLR
00:38 12.8 °C 9.8 °C 1025.3 hPa Calm     82 % 0.0 mm 0.0 W/m2 CLR
00:43 12.2 °C 9.2 °C 1025.3 hPa Calm     82 % 0.0 mm 0.0 W/m2 CLR
00:48 12.2 °C 9.4 °C 1024.9 hPa Calm     83 % 0.0 mm 0.0 W/m2 CLR
00:53 12.2 °C 9.4 °C 1024.9 hPa Calm     83 % 0.0 mm 0.0 W/m2 CLR
00:58 12.2 °C 9.6 °C 1024.9 hPa Calm     84 % 0.0 mm 0.0 W/m2 CLR
01:03 12.2 °C 9.8 °C 1024.9 hPa Calm     85 % 0.0 mm 0.0 W/m2 CLR
01:08 11.7 °C 9.1 °C 1024.9 hPa Calm     84 % 0.0 mm 0.0 W/m2 CLR
01:13 11.7 °C 9.1 °C 1024.9 hPa Calm     84 % 0.0 mm 0.0 W/m2 CLR
01:18 11.7 °C 9.1 °C 1024.9 hPa Calm     84 % 0.0 mm 0.0 W/m2 CLR
01:23 11.1 °C 8.5 °C 1024.9 hPa Calm     84 % 0.0 mm 0.0 W/m2 CLR
01:28 11.1 °C 8.5 °C 1024.9 hPa Calm     84 % 0.0 mm 0.0 W/m2 CLR
01:33 11.1 °C 8.5 °C 1024.9 hPa Calm     84 % 0.0 mm 0.0 W/m2 CLR
01:38 11.1 °C 8.7 °C 1024.9 hPa Calm     85 % 0.0 mm 0.0 W/m2 CLR
01:43 11.1 °C 8.7 °C 1024.9 hPa Calm     85 % 0.0 mm 0.0 W/m2 CLR
01:48 11.1 °C 8.7 °C 1024.9 hPa Calm     85 % 0.0 mm 0.0 W/m2 CLR
01:53 10.6 °C 8.1 °C 1024.9 hPa Calm     85 % 0.0 mm 0.0 W/m2 CLR
01:58 10.6 °C 8.3 °C 1024.9 hPa Calm     86 % 0.0 mm 0.0 W/m2 CLR
02:03 10.6 °C 8.3 °C 1024.9 hPa Calm     86 % 0.0 mm 0.0 W/m2 CLR
02:08 10.6 °C 8.3 °C 1024.9 hPa Calm     86 % 0.0 mm 0.0 W/m2 CLR
02:13 10.6 °C 8.3 °C 1024.9 hPa Calm     86 % 0.0 mm 0.0 W/m2 CLR
02:18 10.6 °C 8.3 °C 1024.9 hPa Calm     86 % 0.0 mm 0.0 W/m2 CLR
02:23 10.6 °C 8.3 °C 1024.9 hPa Calm     86 % 0.0 mm 0.0 W/m2 CLR
02:28 10.6 °C 8.5 °C 1024.9 hPa Calm     87 % 0.0 mm 0.0 W/m2 CLR
02:33 10.6 °C 8.5 °C 1024.9 hPa Calm     87 % 0.0 mm 0.0 W/m2 CLR
02:38 10.6 °C 8.5 °C 1024.9 hPa Calm     87 % 0.0 mm 0.0 W/m2 CLR
02:43 10.6 °C 8.5 °C 1024.9 hPa Calm     87 % 0.0 mm 0.0 W/m2 CLR
02:48 10.6 °C 8.5 °C 1024.9 hPa Calm     87 % 0.0 mm 0.0 W/m2 CLR
02:53 10.0 °C 7.9 °C 1024.9 hPa Calm     87 % 0.0 mm 0.0 W/m2 CLR
02:58 10.0 °C 7.9 °C 1024.9 hPa Calm     87 % 0.0 mm 0.0 W/m2 CLR
03:03 10.0 °C 7.9 °C 1024.9 hPa Calm     87 % 0.0 mm 0.0 W/m2 CLR
03:08 10.0 °C 8.1 °C 1024.9 hPa Calm     88 % 0.0 mm 0.0 W/m2 CLR
03:13 10.0 °C 8.1 °C 1024.9 hPa Calm     88 % 0.0 mm 0.0 W/m2 CLR
03:18 10.0 °C 8.1 °C 1024.9 hPa Calm     88 % 0.0 mm 0.0 W/m2 CLR
03:23 10.0 °C 8.1 °C 1024.9 hPa Calm     88 % 0.0 mm 0.0 W/m2 CLR
03:28 10.0 °C 8.1 °C 1024.9 hPa Calm     88 % 0.0 mm 0.0 W/m2 CLR
03:33 10.0 °C 8.1 °C 1024.9 hPa Calm     88 % 0.0 mm 0.0 W/m2 CLR
03:38 9.4 °C 7.6 °C 1024.9 hPa Calm     88 % 0.0 mm 0.0 W/m2 CLR
03:43 9.4 °C 7.6 °C 1024.9 hPa Calm     88 % 0.0 mm 0.0 W/m2 CLR
03:48 9.4 °C 7.6 °C 1024.9 hPa Calm     88 % 0.0 mm 0.0 W/m2 CLR
03:53 9.4 °C 7.6 °C 1024.9 hPa Calm     88 % 0.0 mm 0.0 W/m2 CLR
03:58 9.4 °C 7.7 °C 1024.6 hPa Calm     89 % 0.0 mm 0.0 W/m2 CLR
04:03 9.4 °C 7.7 °C 1024.6 hPa Calm     89 % 0.0 mm 0.0 W/m2 CLR
04:08 9.4 °C 7.7 °C 1024.6 hPa Calm     89 % 0.0 mm 0.0 W/m2 CLR
04:13 9.4 °C 7.7 °C 1024.6 hPa Calm     89 % 0.0 mm 0.0 W/m2 CLR
04:18 9.4 °C 7.7 °C 1024.6 hPa Calm     89 % 0.0 mm 0.0 W/m2 CLR
04:23 9.4 °C 7.7 °C 1024.6 hPa Calm     89 % 0.0 mm 0.0 W/m2 CLR
04:28 8.9 °C 7.2 °C 1024.6 hPa Calm     89 % 0.0 mm 0.0 W/m2 CLR
04:33 8.9 °C 7.2 °C 1024.6 hPa Calm     89 % 0.0 mm 0.0 W/m2 CLR
04:38 8.9 °C 7.2 °C 1024.6 hPa Calm     89 % 0.0 mm 0.0 W/m2 CLR
04:43 8.9 °C 7.2 °C 1024.6 hPa Calm     89 % 0.0 mm 0.0 W/m2 CLR
04:48 9.4 °C 7.9 °C 1024.6 hPa Calm     90 % 0.0 mm 0.0 W/m2 CLR
04:53 9.4 °C 7.9 °C 1024.6 hPa Calm     90 % 0.0 mm 0.0 W/m2 CLR
04:58 10.0 °C 8.4 °C 1024.6 hPa Calm     90 % 0.0 mm 0.0 W/m2 CLR
05:03 9.4 °C 7.9 °C 1024.6 hPa Calm     90 % 0.0 mm 0.0 W/m2 CLR
05:08 9.4 °C 7.9 °C 1024.3 hPa Calm     90 % 0.0 mm 0.0 W/m2 CLR
05:14 9.4 °C 7.9 °C 1024.3 hPa Calm     90 % 0.0 mm 0.0 W/m2 CLR
05:19 9.4 °C 7.9 °C 1024.3 hPa Calm     90 % 0.0 mm 0.0 W/m2 CLR
05:22 9.4 °C 7.9 °C 1024.3 hPa Calm     90 % 0.0 mm 0.0 W/m2 CLR
05:24 9.4 °C 7.9 °C 1024.3 hPa Calm     90 % 0.0 mm 0.0 W/m2 CLR
05:25 8.9 °C 7.3 °C 1024.3 hPa Calm     90 % 0.0 mm 0.0 W/m2 CLR
05:28 8.9 °C 7.3 °C 1024.3 hPa Calm     90 % 0.0 mm 0.0 W/m2 CLR
05:29 8.9 °C 7.3 °C 1024.3 hPa Calm     90 % 0.0 mm 0.0 W/m2 CLR
05:33 8.9 °C 7.3 °C 1024.3 hPa Calm     90 % 0.0 mm 0.0 W/m2 CLR
05:37 8.9 °C 7.3 °C 1024.3 hPa Calm     90 % 0.0 mm 0.0 W/m2 CLR
05:42 8.9 °C 7.3 °C 1024.3 hPa Calm     90 % 0.0 mm 0.0 W/m2 CLR
05:47 8.9 °C 7.3 °C 1024.3 hPa Calm     90 % 0.0 mm 0.0 W/m2 CLR
05:52 8.9 °C 7.3 °C 1024.6 hPa Calm     90 % 0.0 mm 0.0 W/m2 CLR
05:57 9.4 °C 7.9 °C 1024.3 hPa Calm     90 % 0.0 mm 0.0 W/m2 CLR
06:02 9.4 °C 7.9 °C 1024.6 hPa Calm     90 % 0.0 mm 0.0 W/m2 CLR
06:07 9.4 °C 8.1 °C 1024.6 hPa Calm     91 % 0.0 mm 0.0 W/m2 CLR
06:12 8.9 °C 7.5 °C 1024.6 hPa Calm     91 % 0.0 mm 0.0 W/m2 CLR
06:17 8.9 °C 7.3 °C 1024.6 hPa Calm     90 % 0.0 mm 0.0 W/m2 CLR
06:22 8.9 °C 7.5 °C 1024.6 hPa Calm     91 % 0.0 mm 0.0 W/m2 CLR
06:27 8.9 °C 7.3 °C 1024.6 hPa Calm     90 % 0.0 mm 0.0 W/m2 CLR
06:32 8.3 °C 6.9 °C 1024.6 hPa Calm     91 % 0.0 mm 0.0 W/m2 CLR
06:37 8.3 °C 6.8 °C 1024.6 hPa Calm     90 % 0.0 mm 0.0 W/m2 CLR
06:42 8.3 °C 6.8 °C 1024.6 hPa Calm     90 % 0.0 mm 0.0 W/m2 CLR
06:47 8.3 °C 6.8 °C 1024.6 hPa Calm     90 % 0.0 mm 0.0 W/m2 CLR
06:52 8.3 °C 6.8 °C 1024.6 hPa Calm     90 % 0.0 mm 0.0 W/m2 CLR
06:57 8.3 °C 6.8 °C 1024.6 hPa Calm     90 % 0.0 mm 0.0 W/m2 CLR
07:02 8.3 °C 6.9 °C 1024.6 hPa Calm     91 % 0.0 mm 0.0 W/m2 CLR
07:07 8.3 °C 6.9 °C 1024.6 hPa Calm     91 % 0.0 mm 0.0 W/m2 CLR
07:12 8.3 °C 6.9 °C 1024.6 hPa Calm     91 % 0.0 mm 0.0 W/m2 CLR
07:17 8.3 °C 6.9 °C 1024.6 hPa Calm     91 % 0.0 mm 0.0 W/m2 CLR
07:22 8.3 °C 6.9 °C 1024.6 hPa Calm     91 % 0.0 mm 0.0 W/m2 CLR
07:27 8.3 °C 6.9 °C 1024.9 hPa Calm     91 % 0.0 mm 0.0 W/m2 CLR
07:32 8.3 °C 6.9 °C 1024.9 hPa Calm     91 % 0.0 mm 0.0 W/m2 CLR
07:37 8.3 °C 7.1 °C 1024.9 hPa Calm     92 % 0.0 mm 0.0 W/m2 CLR
07:42 8.3 °C 6.9 °C 1024.9 hPa Calm     91 % 0.0 mm 0.0 W/m2 CLR
07:47 8.3 °C 6.9 °C 1024.9 hPa Calm     91 % 0.0 mm 0.0 W/m2 OVC
07:52 8.3 °C 6.9 °C 1024.9 hPa Calm     91 % 0.0 mm 0.0 W/m2 OVC
07:57 8.3 °C 6.9 °C 1024.9 hPa Calm     91 % 0.0 mm 7.0 W/m2 OVC
08:02 8.3 °C 6.9 °C 1024.9 hPa Calm     91 % 0.0 mm 9.0 W/m2 BKN
08:07 8.3 °C 7.1 °C 1024.9 hPa Calm     92 % 0.0 mm 12.0 W/m2 BKN
08:12 8.3 °C 7.1 °C 1024.9 hPa Calm     92 % 0.0 mm 16.0 W/m2 BKN
08:17 8.3 °C 7.1 °C 1024.9 hPa Calm     92 % 0.0 mm 19.0 W/m2 BKN
08:22 8.3 °C 7.1 °C 1025.3 hPa Calm     92 % 0.0 mm 26.0 W/m2 BKN
08:27 8.3 °C 7.1 °C 1025.3 hPa Calm     92 % 0.0 mm 33.0 W/m2 BKN
08:32 8.3 °C 7.1 °C 1025.3 hPa Calm     92 % 0.0 mm 46.0 W/m2 BKN
08:37 8.3 °C 7.1 °C 1025.3 hPa Calm     92 % 0.0 mm 51.0 W/m2 SCT
08:42 8.9 °C 7.7 °C 1025.3 hPa Calm     92 % 0.0 mm 62.0 W/m2 SCT
08:47 8.9 °C 7.7 °C 1025.3 hPa Calm     92 % 0.0 mm 77.0 W/m2 FEW
08:52 8.9 °C 7.5 °C 1025.3 hPa Calm     91 % 0.0 mm 90.0 W/m2 CLR
08:57 9.4 °C 8.1 °C 1025.3 hPa Calm     91 % 0.0 mm 109.0 W/m2 CLR
09:02 10.0 °C 8.4 °C 1025.3 hPa Calm     90 % 0.0 mm 111.0 W/m2 CLR
09:07 10.0 °C 8.4 °C 1025.3 hPa Calm     90 % 0.0 mm 91.0 W/m2 CLR
09:12 10.6 °C 9.0 °C 1025.3 hPa Calm     90 % 0.0 mm 155.0 W/m2 CLR
09:17 10.6 °C 9.0 °C 1025.3 hPa Calm     90 % 0.0 mm 174.0 W/m2 CLR
09:22 11.1 °C 9.6 °C 1025.3 hPa Calm     90 % 0.0 mm 190.0 W/m2 CLR
09:27 11.7 °C 9.9 °C 1025.3 hPa Calm     89 % 0.0 mm 206.0 W/m2 CLR
09:32 12.2 °C 10.3 °C 1025.3 hPa Calm     88 % 0.0 mm 223.0 W/m2 CLR
09:37 12.2 °C 10.1 °C 1025.3 hPa Calm     87 % 0.0 mm 243.0 W/m2 CLR
09:42 12.8 °C 10.5 °C 1025.3 hPa Calm     86 % 0.0 mm 258.0 W/m2 CLR
09:47 13.3 °C 10.7 °C 1025.3 hPa Calm     84 % 0.0 mm 272.0 W/m2 CLR
09:53 13.9 °C 11.1 °C 1025.3 hPa Calm     83 % 0.0 mm 288.0 W/m2 CLR
09:58 14.4 °C 11.6 °C 1025.3 hPa Calm     83 % 0.0 mm 302.0 W/m2 CLR
10:03 15.0 °C 11.9 °C 1025.3 hPa Calm     82 % 0.0 mm 320.0 W/m2 CLR
10:08 15.6 °C 12.5 °C 1025.3 hPa Calm     82 % 0.0 mm 332.0 W/m2 CLR
10:13 15.6 °C 12.5 °C 1025.3 hPa Calm     82 % 0.0 mm 348.0 W/m2 CLR
10:18 16.1 °C 12.8 °C 1025.3 hPa Calm     81 % 0.0 mm 362.0 W/m2 CLR
10:23 16.1 °C 12.4 °C 1025.3 hPa Calm     79 % 0.0 mm 378.0 W/m2 CLR
10:28 16.7 °C 13.0 °C 1025.3 hPa Calm     79 % 0.0 mm 392.0 W/m2 CLR
10:33 17.2 °C 13.6 °C 1025.3 hPa Calm     79 % 0.0 mm 406.0 W/m2 CLR
10:38 17.2 °C 13.3 °C 1025.3 hPa Calm     78 % 0.0 mm 420.0 W/m2 CLR
10:43 17.8 °C 13.7 °C 1025.3 hPa Calm     77 % 0.0 mm 434.0 W/m2 CLR
10:48 17.8 °C 13.5 °C 1025.3 hPa Calm     76 % 0.0 mm 446.0 W/m2 CLR
10:53 18.3 °C 14.0 °C 1025.3 hPa Calm     76 % 0.0 mm 459.0 W/m2 CLR
10:58 18.3 °C 13.6 °C 1025.3 hPa Calm     74 % 0.0 mm 471.0 W/m2 CLR
11:03 18.3 °C 13.4 °C 1025.3 hPa Calm     73 % 0.0 mm 485.0 W/m2 CLR
11:08 18.3 °C 13.4 °C 1025.3 hPa Calm     73 % 0.0 mm 497.0 W/m2 CLR
11:13 18.3 °C 13.4 °C 1025.3 hPa Calm     73 % 0.0 mm 508.0 W/m2 CLR
11:18 18.9 °C 13.7 °C 1025.3 hPa Calm     72 % 0.0 mm 519.0 W/m2 CLR
11:23 19.4 °C 14.3 °C 1025.3 hPa Calm     72 % 0.0 mm 531.0 W/m2 CLR
11:28 19.4 °C 14.1 °C 1024.9 hPa Calm     71 % 0.0 mm 543.0 W/m2 CLR
11:33 20.0 °C 14.6 °C 1025.3 hPa North 5.6 km/h 5.6 km/h 71 % 0.0 mm 554.0 W/m2 CLR
11:38 20.6 °C 14.9 °C 1024.9 hPa North 6.4 km/h 6.4 km/h 70 % 0.0 mm 563.0 W/m2 CLR
11:43 20.6 °C 14.7 °C 1024.9 hPa NNE 3.7 km/h 3.7 km/h 69 % 0.0 mm 571.0 W/m2 CLR
11:48 21.1 °C 15.2 °C 1024.9 hPa North 9.3 km/h 9.3 km/h 69 % 0.0 mm 584.0 W/m2 CLR
11:49 21.1 °C 15.0 °C 1024.9 hPa NNW 9.3 km/h 9.3 km/h 68 % 0.0 mm 584.0 W/m2 CLR
11:54 21.1 °C 15.0 °C 1024.9 hPa NNE 9.3 km/h 9.3 km/h 68 % 0.0 mm 596.0 W/m2 CLR
11:59 21.7 °C 15.5 °C 1024.9 hPa NNE 6.4 km/h 6.4 km/h 68 % 0.0 mm 603.0 W/m2 CLR
12:04 21.7 °C 15.5 °C 1024.9 hPa North 5.6 km/h 5.6 km/h 68 % 0.0 mm 612.0 W/m2 CLR
12:09 21.7 °C 15.5 °C 1024.9 hPa NNW 9.3 km/h 9.3 km/h 68 % 0.0 mm 622.0 W/m2 CLR
12:14 22.2 °C 15.8 °C 1024.9 hPa Calm     67 % 0.0 mm 628.0 W/m2 CLR
12:19 21.7 °C 14.8 °C 1024.6 hPa Calm     65 % 0.0 mm 638.0 W/m2 CLR
12:24 21.7 °C 14.6 °C 1024.9 hPa Calm     64 % 0.0 mm 643.0 W/m2 CLR
12:29 21.7 °C 14.3 °C 1024.6 hPa Calm     63 % 0.0 mm 649.0 W/m2 CLR
12:34 21.7 °C 14.1 °C 1024.6 hPa Calm     62 % 0.0 mm 657.0 W/m2 CLR
12:39 22.8 °C 15.4 °C 1024.6 hPa Calm     63 % 0.0 mm 668.0 W/m2 CLR
12:44 22.8 °C 15.4 °C 1024.6 hPa ENE 7.4 km/h 7.4 km/h 63 % 0.0 mm 670.0 W/m2 CLR
12:49 23.3 °C 15.9 °C 1024.6 hPa Calm     63 % 0.0 mm 673.0 W/m2 CLR
12:54 23.9 °C 16.4 °C 1024.3 hPa NNW 3.2 km/h 3.2 km/h 63 % 0.0 mm 677.0 W/m2 CLR
12:59 23.9 °C 16.2 °C 1024.3 hPa NNW 7.4 km/h 7.4 km/h 62 % 0.0 mm 684.0 W/m2 CLR
13:04 23.3 °C 15.4 °C 1024.3 hPa WNW 7.4 km/h 7.4 km/h 61 % 0.0 mm 687.0 W/m2 CLR
13:09 23.3 °C 15.4 °C 1024.3 hPa Calm     61 % 0.0 mm 693.0 W/m2 CLR
13:14 23.3 °C 15.1 °C 1024.3 hPa Calm     60 % 0.0 mm 694.0 W/m2 CLR
13:19 23.3 °C 15.1 °C 1024.3 hPa Calm     60 % 0.0 mm 700.0 W/m2 CLR
13:24 23.9 °C 15.4 °C 1024.3 hPa Calm   0.5 km/h 59 % 0.0 mm 701.0 W/m2 CLR
13:29 23.9 °C 15.1 °C 1023.9 hPa Calm     58 % 0.0 mm 705.0 W/m2 CLR
13:34 23.9 °C 15.1 °C 1023.9 hPa Calm     58 % 0.0 mm 705.0 W/m2 CLR
13:39 23.9 °C 14.8 °C 1023.9 hPa Calm     57 % 0.0 mm 707.0 W/m2 CLR
13:44 24.4 °C 15.1 °C 1023.9 hPa Calm     56 % 0.0 mm 708.0 W/m2 CLR
13:49 24.4 °C 14.8 °C 1023.9 hPa Calm     55 % 0.0 mm 708.0 W/m2 CLR
13:54 23.9 °C 13.4 °C 1023.9 hPa Calm     52 % 0.0 mm 712.0 W/m2 CLR
13:59 24.4 °C 13.9 °C 1023.6 hPa Calm     52 % 0.0 mm 708.0 W/m2 CLR
14:04 24.4 °C 13.7 °C 1023.6 hPa NNW 13.0 km/h 13.0 km/h 51 % 0.0 mm 708.0 W/m2 CLR
14:09 25.0 °C 13.2 °C 1023.6 hPa Calm     48 % 0.0 mm 707.0 W/m2 CLR
14:14 25.6 °C 14.4 °C 1023.6 hPa North 8.0 km/h 8.0 km/h 50 % 0.0 mm 707.0 W/m2 CLR
14:19 25.6 °C 14.1 °C 1023.6 hPa Calm     49 % 0.0 mm 705.0 W/m2 CLR
14:24 25.6 °C 13.7 °C 1023.2 hPa Calm     48 % 0.0 mm 703.0 W/m2 CLR
14:29 25.0 °C 13.8 °C 1023.2 hPa NNW 5.6 km/h 5.6 km/h 50 % 0.0 mm 700.0 W/m2 CLR
14:34 25.6 °C 13.7 °C 1023.2 hPa Calm     48 % 0.0 mm 694.0 W/m2 CLR
14:39 25.6 °C 13.4 °C 1023.2 hPa North 3.7 km/h 3.7 km/h 47 % 0.0 mm 693.0 W/m2 CLR
14:40 25.6 °C 13.7 °C 1023.2 hPa Calm     48 % 0.0 mm 693.0 W/m2 CLR
14:45 26.1 °C 12.9 °C 1022.9 hPa Calm     44 % 0.0 mm 691.0 W/m2 CLR
14:50 26.1 °C 13.9 °C 1022.9 hPa North 8.0 km/h 8.0 km/h 47 % 0.0 mm 682.0 W/m2 CLR
14:55 26.1 °C 13.9 °C 1022.9 hPa Calm     47 % 0.0 mm 677.0 W/m2 CLR
15:00 26.1 °C 13.2 °C 1022.9 hPa NNE 9.3 km/h 9.3 km/h 45 % 0.0 mm 673.0 W/m2 CLR
15:05 26.7 °C 14.4 °C 1022.9 hPa Calm     47 % 0.0 mm 666.0 W/m2 CLR
15:10 26.7 °C 14.1 °C 1022.9 hPa WNW 5.6 km/h 5.6 km/h 46 % 0.0 mm 659.0 W/m2 CLR
15:15 26.1 °C 12.9 °C 1022.6 hPa Calm     44 % 0.0 mm 652.0 W/m2 CLR
15:20 26.7 °C 13.4 °C 1022.6 hPa Calm     44 % 0.0 mm 649.0 W/m2 CLR
15:25 26.7 °C 13.4 °C 1022.6 hPa NNW 3.2 km/h 3.2 km/h 44 % 0.0 mm 642.0 W/m2 CLR
15:30 26.7 °C 13.4 °C 1022.6 hPa NW 6.4 km/h 6.4 km/h 44 % 0.0 mm 636.0 W/m2 CLR
15:35 26.7 °C 13.4 °C 1022.2 hPa North 1.9 km/h 1.9 km/h 44 % 0.0 mm 628.0 W/m2 CLR
15:40 27.2 °C 13.9 °C 1022.2 hPa Calm     44 % 0.0 mm 619.0 W/m2 CLR
15:45 27.2 °C 13.6 °C 1022.2 hPa Calm     43 % 0.0 mm 610.0 W/m2 CLR
15:50 26.7 °C 12.7 °C 1021.9 hPa WNW 7.4 km/h 7.4 km/h 42 % 0.0 mm 601.0 W/m2 CLR
15:55 26.7 °C 12.7 °C 1021.9 hPa NW 7.4 km/h 7.4 km/h 42 % 0.0 mm 592.0 W/m2 CLR
16:00 26.7 °C 12.3 °C 1021.9 hPa Calm     41 % 0.0 mm 584.0 W/m2 CLR
16:05 27.2 °C 12.8 °C 1021.9 hPa Calm     41 % 0.0 mm 575.0 W/m2 CLR
16:10 27.2 °C 12.4 °C 1021.9 hPa NW 9.3 km/h 9.3 km/h 40 % 0.0 mm 566.0 W/m2 CLR
16:15 27.8 °C 12.9 °C 1021.9 hPa Calm     40 % 0.0 mm 554.0 W/m2 CLR
16:20 27.8 °C 12.6 °C 1021.6 hPa Calm     39 % 0.0 mm 540.0 W/m2 CLR
16:25 27.2 °C 12.4 °C 1021.6 hPa WNW 1.9 km/h 1.9 km/h 40 % 0.0 mm 529.0 W/m2 CLR
16:30 27.8 °C 12.6 °C 1021.6 hPa Calm     39 % 0.0 mm 517.0 W/m2 CLR
16:35 27.8 °C 12.6 °C 1021.6 hPa NNW 4.8 km/h 4.8 km/h 39 % 0.0 mm 504.0 W/m2 CLR
16:40 28.3 °C 12.7 °C 1021.6 hPa Calm     38 % 0.0 mm 492.0 W/m2 CLR
16:45 28.3 °C 12.7 °C 1021.6 hPa NNW 7.4 km/h 7.4 km/h 38 % 0.0 mm 478.0 W/m2 CLR
16:50 27.8 °C 12.2 °C 1021.2 hPa WNW 11.1 km/h 11.1 km/h 38 % 0.0 mm 466.0 W/m2 CLR
16:55 27.8 °C 12.2 °C 1021.2 hPa Calm     38 % 0.0 mm 454.0 W/m2 CLR
17:00 27.8 °C 12.2 °C 1021.2 hPa WNW 7.4 km/h 7.4 km/h 38 % 0.0 mm 438.0 W/m2 CLR
17:05 27.2 °C 11.7 °C 1021.2 hPa WNW 5.6 km/h 5.6 km/h 38 % 0.0 mm 427.0 W/m2 CLR
17:10 27.2 °C 11.3 °C 1021.2 hPa Calm     37 % 0.0 mm 411.0 W/m2 CLR
17:15 27.2 °C 11.3 °C 1021.2 hPa NNW 6.4 km/h 6.4 km/h 37 % 0.0 mm 396.0 W/m2 CLR
17:20 27.2 °C 10.8 °C 1021.2 hPa North 7.4 km/h 7.4 km/h 36 % 0.0 mm 381.0 W/m2 CLR
17:25 27.2 °C 10.8 °C 1021.2 hPa Calm     36 % 0.0 mm 366.0 W/m2 CLR
17:30 27.2 °C 10.8 °C 1020.9 hPa Calm     36 % 0.0 mm 353.0 W/m2 CLR
17:35 27.8 °C 11.3 °C 1020.9 hPa Calm     36 % 0.0 mm 339.0 W/m2 CLR
17:40 27.8 °C 11.3 °C 1020.9 hPa Calm     36 % 0.0 mm 325.0 W/m2 CLR
17:45 27.2 °C 10.8 °C 1020.9 hPa Calm     36 % 0.0 mm 309.0 W/m2 CLR
17:50 27.2 °C 11.7 °C 1020.9 hPa NNW 3.7 km/h 3.7 km/h 38 % 0.0 mm 294.0 W/m2 CLR
18:05 26.7 °C 14.1 °C 1020.9 hPa NE 16.7 km/h 16.7 km/h 46 % 0.0 mm 244.0 W/m2 CLR
18:10 26.1 °C 14.2 °C 1020.9 hPa North 14.8 km/h 14.8 km/h 48 % 0.0 mm 227.0 W/m2 CLR
18:15 26.1 °C 14.9 °C 1020.9 hPa North 9.3 km/h 9.3 km/h 50 % 0.0 mm 209.0 W/m2 CLR
18:20 26.1 °C 14.9 °C 1020.9 hPa NE 14.8 km/h 14.8 km/h 50 % 0.0 mm 192.0 W/m2 CLR
18:25 25.6 °C 14.7 °C 1020.9 hPa NE 14.8 km/h 14.8 km/h 51 % 0.0 mm 174.0 W/m2 CLR
18:30 25.6 °C 14.7 °C 1020.9 hPa NE 16.7 km/h 16.7 km/h 51 % 0.0 mm 155.0 W/m2 CLR
18:35 25.6 °C 14.9 °C 1020.9 hPa NNE 9.3 km/h 9.3 km/h 52 % 0.0 mm 139.0 W/m2 CLR
18:40 25.0 °C 14.4 °C 1020.9 hPa NE 14.8 km/h 14.8 km/h 52 % 0.0 mm 121.0 W/m2 CLR
18:45 25.0 °C 14.8 °C 1021.2 hPa NE 14.8 km/h 14.8 km/h 53 % 0.0 mm 105.0 W/m2 CLR
18:50 24.4 °C 14.2 °C 1021.2 hPa NNE 14.8 km/h 14.8 km/h 53 % 0.0 mm 90.0 W/m2 CLR
18:55 24.4 °C 14.6 °C 1021.2 hPa NNE 11.1 km/h 11.1 km/h 54 % 0.0 mm 69.0 W/m2 FEW
19:00 24.4 °C 14.8 °C 1021.2 hPa NE 11.1 km/h 11.1 km/h 55 % 0.0 mm 56.0 W/m2 SCT
19:05 23.9 °C 14.3 °C 1021.2 hPa NE 11.1 km/h 11.1 km/h 55 % 0.0 mm 49.0 W/m2 SCT
19:11 23.9 °C 14.6 °C 1021.2 hPa ENE 9.3 km/h 9.3 km/h 56 % 0.0 mm 35.0 W/m2 BKN
19:16 23.3 °C 14.3 °C 1021.2 hPa NNE 9.3 km/h 9.3 km/h 57 % 0.0 mm 26.0 W/m2 BKN
19:21 23.3 °C 14.6 °C 1021.2 hPa NE 5.6 km/h 5.6 km/h 58 % 0.0 mm 19.0 W/m2 BKN
19:26 22.8 °C 14.1 °C 1021.2 hPa NE 7.4 km/h 7.4 km/h 58 % 0.0 mm 16.0 W/m2 BKN
19:31 22.2 °C 13.8 °C 1021.2 hPa NE 3.7 km/h 3.7 km/h 59 % 0.0 mm 11.0 W/m2 BKN
19:36 22.2 °C 14.1 °C 1021.2 hPa Calm     60 % 0.0 mm 7.0 W/m2 BKN
19:41 21.7 °C 13.8 °C 1021.2 hPa Calm     61 % 0.0 mm 5.0 W/m2 OVC
19:46 21.1 °C 13.3 °C 1021.2 hPa Calm     61 % 0.0 mm 0.0 W/m2 OVC
19:51 20.6 °C 13.0 °C 1021.6 hPa Calm     62 % 0.0 mm 0.0 W/m2 OVC
19:56 20.0 °C 12.5 °C 1021.6 hPa Calm     62 % 0.0 mm 0.0 W/m2 CLR
20:01 19.4 °C 12.2 °C 1021.6 hPa Calm     63 % 0.0 mm 0.0 W/m2 CLR
20:06 18.9 °C 11.9 °C 1021.6 hPa Calm     64 % 0.0 mm 0.0 W/m2 CLR
20:11 18.9 °C 11.9 °C 1021.6 hPa Calm     64 % 0.0 mm 0.0 W/m2 CLR
20:16 18.3 °C 11.4 °C 1021.6 hPa Calm     64 % 0.0 mm 0.0 W/m2 CLR
20:21 17.8 °C 10.9 °C 1021.6 hPa Calm     64 % 0.0 mm 0.0 W/m2 CLR
20:26 17.8 °C 10.9 °C 1021.6 hPa East 6.4 km/h 6.4 km/h 64 % 0.0 mm 0.0 W/m2 CLR
20:31 17.2 °C 10.3 °C 1021.6 hPa Calm     64 % 0.0 mm 0.0 W/m2 CLR
20:36 17.2 °C 10.3 °C 1021.6 hPa Calm     64 % 0.0 mm 0.0 W/m2 CLR
20:41 16.7 °C 9.8 °C 1021.9 hPa Calm     64 % 0.0 mm 0.0 W/m2 CLR
20:46 16.7 °C 9.8 °C 1021.9 hPa Calm     64 % 0.0 mm 0.0 W/m2 CLR
20:51 16.1 °C 9.3 °C 1021.9 hPa Calm     64 % 0.0 mm 0.0 W/m2 CLR
20:56 16.1 °C 9.3 °C 1021.9 hPa East 1.9 km/h 1.9 km/h 64 % 0.0 mm 0.0 W/m2 CLR
21:01 16.1 °C 9.3 °C 1022.2 hPa Calm     64 % 0.0 mm 0.0 W/m2 CLR
21:06 16.1 °C 9.3 °C 1022.2 hPa Calm     64 % 0.0 mm 0.0 W/m2 CLR
21:11 15.6 °C 9.2 °C 1022.2 hPa ENE 5.6 km/h 5.6 km/h 66 % 0.0 mm 0.0 W/m2 CLR
21:16 15.6 °C 9.2 °C 1022.2 hPa Calm     66 % 0.0 mm 0.0 W/m2 CLR
21:21 15.6 °C 9.2 °C 1022.2 hPa Calm     66 % 0.0 mm 0.0 W/m2 CLR
21:26 15.0 °C 8.9 °C 1022.2 hPa NNE 3.2 km/h 3.2 km/h 67 % 0.0 mm 0.0 W/m2 CLR
21:31 15.0 °C 8.9 °C 1022.2 hPa Calm     67 % 0.0 mm 0.0 W/m2 CLR
21:36 15.0 °C 9.1 °C 1022.2 hPa Calm     68 % 0.0 mm 0.0 W/m2 CLR
21:41 14.4 °C 8.8 °C 1022.2 hPa Calm     69 % 0.0 mm 0.0 W/m2 CLR
21:46 14.4 °C 9.1 °C 1022.2 hPa Calm     70 % 0.0 mm 0.0 W/m2 CLR
21:51 14.4 °C 9.1 °C 1022.2 hPa Calm     70 % 0.0 mm 0.0 W/m2 CLR
21:56 14.4 °C 9.2 °C 1022.2 hPa Calm     71 % 0.0 mm 0.0 W/m2 CLR
22:01 13.9 °C 8.7 °C 1022.6 hPa Calm     71 % 0.0 mm 0.0 W/m2 CLR
22:06 13.9 °C 8.5 °C 1022.6 hPa Calm     70 % 0.0 mm 0.0 W/m2 CLR
22:11 13.9 °C 8.7 °C 1022.6 hPa Calm     71 % 0.0 mm 0.0 W/m2 CLR
22:12 13.9 °C 8.7 °C 1022.6 hPa Calm     71 % 0.0 mm 0.0 W/m2 CLR
22:17 13.9 °C 9.3 °C 1022.6 hPa Calm     74 % 0.0 mm 0.0 W/m2 CLR
22:22 13.9 °C 9.3 °C 1022.6 hPa Calm     74 % 0.0 mm 0.0 W/m2 CLR
22:27 13.9 °C 8.9 °C 1022.6 hPa Calm     72 % 0.0 mm 0.0 W/m2 CLR
22:32 13.3 °C 8.6 °C 1022.6 hPa Calm     73 % 0.0 mm 0.0 W/m2 CLR
22:37 13.3 °C 8.8 °C 1022.6 hPa Calm     74 % 0.0 mm 0.0 W/m2 CLR
22:42 13.3 °C 9.2 °C 1022.6 hPa Calm     76 % 0.0 mm 0.0 W/m2 CLR
22:47 13.3 °C 9.2 °C 1022.6 hPa Calm     76 % 0.0 mm 0.0 W/m2 CLR
22:52 13.3 °C 9.0 °C 1022.6 hPa Calm     75 % 0.0 mm 0.0 W/m2 CLR
22:57 13.3 °C 9.0 °C 1022.6 hPa Calm     75 % 0.0 mm 0.0 W/m2 CLR
23:02 12.8 °C 8.4 °C 1022.6 hPa Calm     75 % 0.0 mm 0.0 W/m2 CLR
23:07 12.8 °C 8.4 °C 1022.6 hPa Calm     75 % 0.0 mm 0.0 W/m2 CLR
23:12 12.8 °C 8.3 °C 1022.6 hPa Calm     74 % 0.0 mm 0.0 W/m2 CLR
23:17 12.8 °C 8.7 °C 1022.6 hPa Calm     76 % 0.0 mm 0.0 W/m2 CLR
23:22 12.8 °C 9.2 °C 1022.6 hPa Calm     79 % 0.0 mm 0.0 W/m2 CLR
23:27 12.8 °C 8.8 °C 1022.6 hPa Calm     77 % 0.0 mm 0.0 W/m2 CLR
23:32 12.8 °C 8.4 °C 1022.6 hPa Calm     75 % 0.0 mm 0.0 W/m2 CLR
23:37 12.8 °C 8.7 °C 1022.6 hPa Calm     76 % 0.0 mm 0.0 W/m2 CLR
23:42 12.2 °C 8.3 °C 1022.6 hPa Calm     77 % 0.0 mm 0.0 W/m2 CLR
23:47 12.2 °C 8.5 °C 1022.9 hPa Calm     78 % 0.0 mm 0.0 W/m2 CLR
23:52 12.2 °C 8.5 °C 1022.6 hPa Calm     78 % 0.0 mm 0.0 W/m2 CLR
Lo Temps de Massalio
Compliments of Weather Underground - 1.25 mb